Time;durP1;ratioP1;P1;durP2;ratioP2;P2;SDS_P1;SDS_P2;PMS_P1;PMS_P2;Temp;Humidity;BMP_temperature;BMP_pressure;BME280_temperature;BME280_humidity;BME280_pressure;Samples;Min_cycle;Max_cycle;Signal;HPM_P1;HPM_P2
2020/12/21 00:00:19;;;;;;;69.92;29.90;;;;;;;2.82;84.64;102279.50;1769184;79;21702;-73
2020/12/21 00:02:48;;;;;;;67.95;28.60;;;;;;;2.85;84.58;102281.81;1776515;79;21555;-73
2020/12/21 00:05:16;;;;;;;69.50;27.90;;;;;;;2.89;84.49;102281.80;1760153;79;22052;-72
2020/12/21 00:07:44;;;;;;;67.72;28.52;;;;;;;2.91;84.33;102289.08;1761613;79;21554;-74
2020/12/21 00:10:11;;;;;;;71.00;29.48;;;;;;;2.90;84.23;102290.58;1773635;79;22315;-73
2020/12/21 00:12:39;;;;;;;66.60;28.98;;;;;;;2.88;84.21;102291.22;1777092;79;21206;-76
2020/12/21 00:15:07;;;;;;;60.63;27.42;;;;;;;2.88;84.16;102288.58;1760263;79;21221;-75
2020/12/21 00:17:35;;;;;;;65.12;27.32;;;;;;;2.88;84.09;102297.81;1759852;80;21207;-74
2020/12/21 00:20:04;;;;;;;67.05;27.17;;;;;;;2.83;83.97;102291.72;1769159;80;22196;-75
2020/12/21 00:22:33;;;;;;;54.35;24.75;;;;;;;2.76;83.87;102293.34;1767527;79;21281;-72
2020/12/21 00:27:23;;;;;;;51.00;23.23;;;;;;;2.76;83.86;102294.19;1867807;74;22399;-74
2020/12/21 00:29:51;;;;;;;46.05;21.00;;;;;;;2.69;83.88;102294.48;1847081;77;21139;-75
2020/12/21 00:32:19;;;;;;;42.60;20.05;;;;;;;2.61;83.78;102294.97;1841403;77;21377;-74
2020/12/21 00:34:47;;;;;;;41.15;19.60;;;;;;;2.46;83.76;102296.89;1845501;77;21599;-74
2020/12/21 00:37:15;;;;;;;41.90;20.40;;;;;;;2.31;83.85;102295.88;1834907;77;21203;-72
2020/12/21 00:39:43;;;;;;;46.10;21.25;;;;;;;2.22;84.00;102303.41;1831284;77;21220;-74
2020/12/21 00:42:10;;;;;;;47.48;22.07;;;;;;;2.15;84.17;102299.27;1837289;77;21442;-73
2020/12/21 00:44:38;;;;;;;41.83;19.50;;;;;;;2.17;84.32;102294.64;1839591;77;22339;-73
2020/12/21 00:47:06;;;;;;;40.70;18.10;;;;;;;2.17;84.36;102289.38;1853699;77;21662;-73
2020/12/21 00:49:34;;;;;;;38.90;18.45;;;;;;;2.13;84.40;102286.73;1778705;80;21182;-74
2020/12/21 00:52:02;;;;;;;40.88;19.62;;;;;;;2.10;84.47;102286.55;1767231;80;21171;-73
2020/12/21 00:54:30;;;;;;;42.38;19.98;;;;;;;2.07;84.56;102288.21;1793395;79;21168;-74
2020/12/21 00:56:58;;;;;;;36.58;17.23;;;;;;;2.04;84.67;102282.40;1795901;79;21800;-73
2020/12/21 00:59:26;;;;;;;34.40;16.65;;;;;;;1.99;84.76;102281.56;1798324;77;21216;-73
2020/12/21 01:01:54;;;;;;;38.90;19.02;;;;;;;1.97;84.87;102281.38;1776698;79;21216;-74
2020/12/21 01:04:21;;;;;;;36.77;16.87;;;;;;;1.97;84.96;102282.20;1784837;80;21173;-74
2020/12/21 01:06:54;;;;;;;32.20;16.48;;;;;;;2.00;85.00;102292.44;1774050;80;21211;-73
2020/12/21 01:09:21;;;;;;;39.15;18.45;;;;;;;1.99;85.07;102292.61;1783479;80;21397;-73
2020/12/21 01:11:54;;;;;;;31.68;15.83;;;;;;;1.99;85.13;102288.16;1781650;80;21199;-72
2020/12/21 01:14:22;;;;;;;32.40;15.35;;;;;;;1.99;85.18;102285.52;1788122;79;21171;-72
2020/12/21 01:16:49;;;;;;;33.53;17.73;;;;;;;1.97;85.20;102282.70;1784069;79;21481;-73
2020/12/21 01:19:17;;;;;;;30.92;14.85;;;;;;;1.95;85.22;102278.10;1793346;79;21206;-73
2020/12/21 01:21:46;;;;;;;30.32;16.20;;;;;;;1.93;85.27;102276.92;1782351;79;21362;-74
2020/12/21 01:24:13;;;;;;;30.45;15.55;;;;;;;1.91;85.33;102276.27;1771882;80;21152;-73
2020/12/21 01:26:42;;;;;;;31.75;15.70;;;;;;;1.96;85.43;102277.92;1774254;80;21163;-73
2020/12/21 01:29:10;;;;;;;29.72;15.53;;;;;;;1.99;85.46;102274.98;1810678;79;21184;-73
2020/12/21 01:31:37;;;;;;;24.55;13.32;;;;;;;1.99;85.42;102277.61;1777864;80;21212;-74
2020/12/21 01:34:07;;;;;;;23.00;12.63;;;;;;;2.01;85.44;102275.66;1781150;80;22150;-74
2020/12/21 01:36:34;;;;;;;25.72;13.72;;;;;;;2.00;85.41;102279.26;1782622;80;21490;-74
2020/12/21 01:39:02;;;;;;;28.07;14.75;;;;;;;2.00;85.43;102272.67;1811398;79;21487;-74
2020/12/21 01:41:31;;;;;;;26.02;13.18;;;;;;;2.00;85.46;102271.35;1805726;79;21192;-75
2020/12/21 01:43:59;;;;;;;28.70;13.93;;;;;;;2.03;85.50;102271.04;1793166;79;21572;-74
2020/12/21 01:46:26;;;;;;;26.73;13.78;;;;;;;2.05;85.47;102274.84;1788712;79;21552;-75
2020/12/21 01:48:54;;;;;;;26.35;13.32;;;;;;;2.07;85.43;102276.34;1792318;79;21069;-74
2020/12/21 01:51:27;;;;;;;23.77;12.60;;;;;;;2.11;85.39;102277.67;1789945;79;21486;-74
2020/12/21 01:53:55;;;;;;;26.70;12.82;;;;;;;2.12;85.31;102281.13;1784568;79;21489;-74
2020/12/21 01:56:23;;;;;;;19.73;11.65;;;;;;;2.07;85.27;102284.26;1794614;79;21061;-74
2020/12/21 01:58:51;;;;;;;17.87;9.28;;;;;;;2.00;85.25;102282.39;1807498;79;21133;-74
2020/12/21 02:01:19;;;;;;;18.90;10.32;;;;;;;1.97;85.28;102279.56;1804064;79;21188;-72
2020/12/21 02:03:48;;;;;;;19.48;10.85;;;;;;;1.93;85.28;102281.37;1794606;79;21108;-72
2020/12/21 02:06:18;;;;;;;19.77;10.90;;;;;;;1.88;85.27;102273.95;1796798;79;21532;-73
2020/12/21 02:08:46;;;;;;;20.08;10.50;;;;;;;1.84;85.30;102275.22;1816075;78;21132;-73
2020/12/21 02:11:15;;;;;;;18.98;10.93;;;;;;;1.79;85.36;102274.39;1810328;78;21196;-72
2020/12/21 02:13:44;;;;;;;19.45;10.40;;;;;;;1.73;85.41;102272.88;1816500;79;21596;-74
2020/12/21 02:16:15;;;;;;;20.32;11.50;;;;;;;1.70;85.50;102276.64;1810248;79;21140;-74
2020/12/21 02:18:43;;;;;;;18.30;11.12;;;;;;;1.68;85.53;102275.13;1811200;79;21615;-73
2020/12/21 02:21:11;;;;;;;20.05;10.23;;;;;;;1.70;85.56;102267.91;1788083;79;21160;-74
2020/12/21 02:23:38;;;;;;;19.23;10.38;;;;;;;1.69;85.56;102268.91;1789197;79;21802;-73
2020/12/21 02:26:07;;;;;;;17.73;9.85;;;;;;;1.64;85.64;102268.86;1799025;79;21509;-74
2020/12/21 02:28:34;;;;;;;20.75;10.80;;;;;;;1.63;85.71;102264.58;1808171;79;21036;-73
2020/12/21 02:31:02;;;;;;;21.25;11.45;;;;;;;1.61;85.73;102269.20;1784727;79;21192;-73
2020/12/21 02:33:30;;;;;;;19.05;11.08;;;;;;;1.66;85.81;102275.80;1785605;79;21167;-74
2020/12/21 02:35:57;;;;;;;19.65;11.35;;;;;;;1.73;85.84;102272.38;1808106;79;21363;-74
2020/12/21 02:38:25;;;;;;;21.37;11.63;;;;;;;1.80;85.81;102272.58;1785560;79;21116;-73
2020/12/21 02:40:52;;;;;;;18.52;10.82;;;;;;;1.83;85.72;102266.99;1795358;79;21517;-73
2020/12/21 02:43:22;;;;;;;20.68;10.82;;;;;;;1.81;85.66;102267.63;1785132;79;21061;-73
2020/12/21 02:45:49;;;;;;;21.42;10.80;;;;;;;1.78;85.68;102271.43;1783787;79;21556;-72
2020/12/21 02:48:17;;;;;;;19.65;10.95;;;;;;;1.77;85.67;102270.25;1771982;79;22290;-74
2020/12/21 02:50:46;;;;;;;23.42;12.10;;;;;;;1.81;85.67;102275.07;1791695;79;21521;-74
2020/12/21 02:53:15;;;;;;;21.00;11.15;;;;;;;1.87;85.62;102275.73;1789484;79;21156;-72
2020/12/21 02:55:46;;;;;;;23.67;12.15;;;;;;;1.92;85.57;102275.78;1783581;79;21667;-73
2020/12/21 02:58:14;;;;;;;18.95;9.30;;;;;;;1.90;85.50;102278.55;1785950;79;21125;-73
2020/12/21 03:00:43;;;;;;;20.97;10.68;;;;;;;1.89;85.43;102284.81;1793350;79;21372;-74
2020/12/21 03:03:13;;;;;;;22.40;10.93;;;;;;;1.87;85.38;102282.81;1797066;79;21124;-73
2020/12/21 03:05:42;;;;;;;26.07;12.65;;;;;;;1.85;85.36;102282.98;1779580;79;21200;-73
2020/12/21 03:08:11;;;;;;;22.75;11.75;;;;;;;1.87;85.39;102282.81;1766120;79;21251;-73
2020/12/21 03:10:39;;;;;;;22.95;11.40;;;;;;;1.91;85.42;102280.23;1766745;79;21137;-74
2020/12/21 03:13:07;;;;;;;21.73;11.22;;;;;;;1.97;85.38;102283.52;1790176;79;21393;-73
2020/12/21 03:15:35;;;;;;;21.62;11.05;;;;;;;2.01;85.33;102283.56;1773609;79;21211;-72
2020/12/21 03:18:03;;;;;;;21.33;11.55;;;;;;;2.07;85.29;102288.67;1794710;79;21481;-73
2020/12/21 03:20:31;;;;;;;22.45;11.60;;;;;;;2.06;85.17;102287.85;1779967;80;21076;-74
2020/12/21 03:22:58;;;;;;;21.75;11.30;;;;;;;2.03;85.15;102286.03;1804020;79;21105;-73
2020/12/21 03:25:26;;;;;;;20.68;11.43;;;;;;;2.04;85.15;102286.35;1777020;80;21663;-74
2020/12/21 03:27:54;;;;;;;19.52;10.70;;;;;;;2.08;85.15;102287.71;1772067;80;21089;-74
2020/12/21 03:30:21;;;;;;;21.35;12.20;;;;;;;2.05;85.04;102292.80;1773068;79;21097;-74
2020/12/21 03:32:50;;;;;;;19.37;11.08;;;;;;;2.03;85.01;102288.66;1802352;79;21108;-73
2020/12/21 03:35:20;;;;;;;20.17;12.33;;;;;;;2.09;85.03;102293.31;1792983;79;21136;-73
2020/12/21 03:37:49;;;;;;;22.27;12.33;;;;;;;2.13;84.96;102288.05;1776300;80;21360;-73
2020/12/21 03:40:17;;;;;;;24.10;13.98;;;;;;;2.13;84.85;102291.18;1802531;79;21140;-73
2020/12/21 03:42:45;;;;;;;29.82;16.70;;;;;;;2.09;84.75;102290.67;1788526;79;22716;-73
2020/12/21 03:45:13;;;;;;;27.98;15.03;;;;;;;2.04;84.70;102292.94;1785844;80;21113;-73
2020/12/21 03:47:42;;;;;;;24.25;13.98;;;;;;;2.02;84.65;102293.11;1797005;79;21065;-73
2020/12/21 03:50:10;;;;;;;21.00;12.60;;;;;;;2.01;84.63;102294.61;1816669;79;21265;-73
2020/12/21 03:52:38;;;;;;;24.67;14.55;;;;;;;1.99;84.63;102295.24;1815778;78;21097;-74
2020/12/21 03:55:05;;;;;;;20.08;13.30;;;;;;;1.96;84.63;102295.55;1806420;79;21428;-74
2020/12/21 03:57:33;;;;;;;25.17;15.63;;;;;;;1.95;84.61;102297.86;1782801;79;21076;-73
2020/12/21 04:00:01;;;;;;;20.25;13.28;;;;;;;1.92;84.64;102294.22;1790519;79;21139;-74
2020/12/21 04:02:33;;;;;;;21.05;13.05;;;;;;;1.91;84.66;102294.72;1767803;80;21417;-74
2020/12/21 04:05:06;;;;;;;21.50;13.83;;;;;;;1.90;84.63;102290.41;1762703;80;21541;-73
2020/12/21 04:07:36;;;;;;;20.40;13.13;;;;;;;1.86;84.64;102292.53;1770220;80;21164;-73
2020/12/21 04:10:06;;;;;;;20.37;12.43;;;;;;;1.84;84.69;102297.63;1759495;80;21082;-73
2020/12/21 04:12:34;;;;;;;19.65;11.95;;;;;;;1.83;84.76;102298.61;1754919;81;21121;-74
2020/12/21 04:15:04;;;;;;;24.45;14.68;;;;;;;1.82;84.78;102293.02;1760726;80;21421;-73
2020/12/21 04:17:32;;;;;;;22.95;12.65;;;;;;;1.82;84.77;102296.47;1756473;80;21129;-74
2020/12/21 04:20:00;;;;;;;23.00;12.60;;;;;;;1.84;84.84;102293.66;1767873;80;21137;-74
2020/12/21 04:22:28;;;;;;;21.55;11.63;;;;;;;1.81;84.85;102297.93;1785157;80;21112;-73
2020/12/21 04:24:55;;;;;;;20.65;10.98;;;;;;;1.81;84.92;102300.56;1784655;80;21616;-73
2020/12/21 04:27:23;;;;;;;21.90;11.08;;;;;;;1.79;84.95;102297.28;1781365;80;21477;-74
2020/12/21 04:29:50;;;;;;;20.57;11.25;;;;;;;1.78;84.99;102291.69;1764541;80;21094;-73
2020/12/21 04:32:18;;;;;;;18.15;10.35;;;;;;;1.80;85.05;102288.38;1775829;80;21181;-74
2020/12/21 04:34:47;;;;;;;19.60;10.58;;;;;;;1.84;85.04;102291.88;1773040;80;21188;-73
2020/12/21 04:37:14;;;;;;;25.00;12.18;;;;;;;1.84;85.05;102292.35;1770703;80;21105;-73
2020/12/21 04:39:42;;;;;;;22.17;10.32;;;;;;;1.81;85.09;102288.70;1784836;80;21807;-73
2020/12/21 04:42:09;;;;;;;24.12;10.70;;;;;;;1.83;85.18;102288.08;1778564;80;21134;-73
2020/12/21 04:44:37;;;;;;;21.35;10.15;;;;;;;1.84;85.20;102278.71;1772604;80;21116;-73
2020/12/21 04:47:05;;;;;;;20.43;10.48;;;;;;;1.83;85.18;102284.13;1779366;80;21175;-73
2020/12/21 04:49:33;;;;;;;18.60;9.73;;;;;;;1.80;85.19;102282.62;1777901;80;21783;-74
2020/12/21 04:52:06;;;;;;;19.98;10.63;;;;;;;1.82;85.24;102283.80;1780488;80;22676;-74
2020/12/21 04:54:34;;;;;;;19.15;9.83;;;;;;;1.78;85.31;102279.83;1775872;80;21723;-75
2020/12/21 04:57:01;;;;;;;20.88;10.35;;;;;;;1.75;85.38;102287.55;1775619;80;21129;-74
2020/12/21 04:59:29;;;;;;;20.02;10.28;;;;;;;1.68;85.45;102282.57;1755991;80;21577;-75
2020/12/21 05:01:58;;;;;;;21.52;11.15;;;;;;;1.67;85.51;102284.03;1776782;80;21164;-74
2020/12/21 05:04:26;;;;;;;20.72;10.08;;;;;;;1.63;85.59;102285.66;1775723;80;21580;-72
2020/12/21 05:06:58;;;;;;;16.75;8.90;;;;;;;1.64;85.67;102283.34;1763386;80;21148;-73
2020/12/21 05:09:26;;;;;;;17.75;9.10;;;;;;;1.62;85.72;102284.02;1806766;79;21167;-73
2020/12/21 05:12:03;;;;;;;18.57;10.15;;;;;;;1.59;85.82;102283.50;1787556;79;21105;-73
2020/12/21 05:14:35;;;;;;;16.25;8.98;;;;;;;1.58;85.85;102278.73;1793844;79;21129;-74
2020/12/21 05:17:14;;;;;;;20.02;10.10;;;;;;;1.62;85.93;102288.45;1806205;79;21346;-74
2020/12/21 05:19:44;;;;;;;21.05;10.55;;;;;;;1.62;85.96;102287.96;1790043;80;21503;-75
2020/12/21 05:22:15;;;;;;;17.42;9.05;;;;;;;1.61;85.98;102286.78;1798480;79;21183;-74
2020/12/21 05:24:43;;;;;;;;;;;;;;;1.60;86.03;102287.77;1793300;79;21085;-73
2020/12/21 05:27:18;;;;;;;19.27;9.68;;;;;;;1.62;86.07;102283.19;1800922;79;20268;-73
2020/12/21 05:29:55;;;;;;;18.55;9.10;;;;;;;1.66;86.07;102287.16;1795027;79;21478;-74
2020/12/21 05:32:22;;;;;;;19.52;10.32;;;;;;;1.70;86.08;102290.30;1791506;79;21676;-74
2020/12/21 05:34:50;;;;;;;21.05;10.75;;;;;;;1.71;86.06;102289.31;1786701;79;21196;-74
2020/12/21 05:37:20;;;;;;;19.07;9.20;;;;;;;1.70;86.03;102284.54;1785614;79;21227;-74
2020/12/21 05:39:53;;;;;;;21.52;10.85;;;;;;;1.69;86.04;102288.66;1796050;79;21191;-74
2020/12/21 05:42:22;;;;;;;22.42;11.22;;;;;;;1.64;86.02;102287.80;1781228;79;21365;-75
2020/12/21 05:45:05;;;;;;;20.55;10.72;;;;;;;1.66;86.08;102289.80;1772782;79;21212;-73
2020/12/21 05:47:33;;;;;;;20.90;10.80;;;;;;;1.71;86.10;102297.22;1787648;79;21195;-73
2020/12/21 05:50:06;;;;;;;16.57;9.05;;;;;;;1.70;86.11;102292.94;1779635;79;21064;-74
2020/12/21 05:52:39;;;;;;;20.27;11.22;;;;;;;1.67;86.13;102299.83;1769580;79;21184;-73
2020/12/21 05:55:11;;;;;;;17.35;8.95;;;;;;;1.63;86.14;102301.45;1779003;79;22715;-74
2020/12/21 05:57:39;;;;;;;;;;;;;;;1.64;86.18;102300.47;1779108;79;21181;-74
2020/12/21 06:00:09;;;;;;;17.27;9.83;;;;;;;1.61;86.21;102296.86;1757582;79;20285;-73
2020/12/21 06:02:37;;;;;;;17.37;9.60;;;;;;;1.56;86.23;102300.42;1753121;80;21201;-74
2020/12/21 06:05:14;;;;;;;17.52;9.75;;;;;;;1.56;86.30;102296.48;1761473;79;21385;-74
2020/12/21 06:07:58;;;;;;;16.20;9.53;;;;;;;1.59;86.29;102306.70;1804799;77;23509;-74
2020/12/21 06:10:26;;;;;;;15.68;8.98;;;;;;;1.54;86.35;102302.38;1829072;76;21547;-73
2020/12/21 06:12:54;;;;;;;16.65;9.45;;;;;;;1.57;86.39;102307.83;1783921;77;21400;-74
2020/12/21 06:15:24;;;;;;;15.93;8.95;;;;;;;1.59;86.41;102311.16;1825308;76;21197;-74
2020/12/21 06:17:55;;;;;;;20.32;10.65;;;;;;;1.57;86.42;102312.61;1809466;77;21143;-74
2020/12/21 06:20:23;;;;;;;17.75;9.78;;;;;;;1.56;86.46;102319.36;1828569;76;21131;-74
2020/12/21 06:22:51;;;;;;;17.20;9.70;;;;;;;1.60;86.52;102320.70;1832369;76;21209;-73
2020/12/21 06:25:23;;;;;;;16.23;9.50;;;;;;;1.60;86.48;102322.02;1831962;77;21283;-74
2020/12/21 06:27:50;;;;;;;16.10;9.10;;;;;;;1.61;86.52;102325.83;1823767;76;25081;-74
2020/12/21 06:30:28;;;;;;;16.65;9.43;;;;;;;1.62;86.52;102320.88;1817184;77;21234;-74
2020/12/21 06:33:02;;;;;;;16.00;9.25;;;;;;;1.62;86.52;102322.20;1820694;77;21088;-73
2020/12/21 06:35:42;;;;;;;15.63;8.53;;;;;;;1.66;86.54;102321.89;1820482;76;21124;-73
2020/12/21 06:38:17;;;;;;;14.90;8.90;;;;;;;1.63;86.52;102321.21;1830835;77;21189;-72
2020/12/21 06:40:45;;;;;;;14.60;8.40;;;;;;;1.62;86.55;102320.06;1817665;77;21119;-73
2020/12/21 06:43:14;;;;;;;12.58;7.22;;;;;;;1.60;86.57;102316.75;1812073;77;21111;-74
2020/12/21 06:45:44;;;;;;;10.58;6.35;;;;;;;1.57;86.58;102318.37;1827971;77;21582;-74
2020/12/21 06:48:23;;;;;;;13.40;7.58;;;;;;;1.56;86.59;102313.59;1813383;77;21115;-73
2020/12/21 06:50:52;;;;;;;15.72;9.45;;;;;;;1.57;86.60;102317.05;1827149;76;21345;-73
2020/12/21 06:53:19;;;;;;;15.25;8.93;;;;;;;1.57;86.63;102324.45;1822634;76;21476;-73
2020/12/21 06:55:47;;;;;;;13.48;7.40;;;;;;;1.58;86.67;102322.64;1825478;76;21048;-73
2020/12/21 06:58:15;;;;;;;15.25;9.20;;;;;;;1.57;86.68;102321.82;1822668;77;21175;-73
2020/12/21 07:00:45;;;;;;;13.60;8.45;;;;;;;1.58;86.66;102326.13;1828959;77;21620;-74
2020/12/21 07:03:13;;;;;;;15.88;9.45;;;;;;;1.58;86.65;102327.45;1822924;77;21357;-73
2020/12/21 07:05:41;;;;;;;14.13;8.60;;;;;;;1.60;86.69;102325.47;1832533;77;21218;-73
2020/12/21 07:08:08;;;;;;;16.15;9.48;;;;;;;1.66;86.69;102324.03;1807873;78;21128;-73
2020/12/21 07:10:39;;;;;;;13.32;7.90;;;;;;;1.70;86.60;102328.00;1789730;79;21203;-73
2020/12/21 07:13:06;;;;;;;15.72;9.10;;;;;;;1.71;86.51;102330.14;1778089;80;21185;-74
2020/12/21 07:15:34;;;;;;;14.98;8.75;;;;;;;1.68;86.44;102331.30;1825263;78;21387;-73
2020/12/21 07:18:02;;;;;;;14.47;9.13;;;;;;;1.67;86.36;102329.62;1824406;78;21198;-74
2020/12/21 07:20:30;;;;;;;14.10;8.95;;;;;;;1.67;86.34;102328.31;1822833;78;21642;-74
2020/12/21 07:22:57;;;;;;;11.90;7.25;;;;;;;1.67;86.35;102326.17;1804816;78;21208;-73
2020/12/21 07:25:25;;;;;;;11.18;7.03;;;;;;;1.66;86.34;102334.57;1814299;78;21145;-75
2020/12/21 07:27:53;;;;;;;9.93;6.00;;;;;;;1.63;86.30;102325.16;1819306;78;21788;-75
2020/12/21 07:30:26;;;;;;;10.30;6.28;;;;;;;1.66;86.33;102329.30;1824750;78;21195;-75
2020/12/21 07:32:54;;;;;;;9.18;5.35;;;;;;;1.70;86.37;102328.50;1823239;78;21162;-73
2020/12/21 07:35:23;;;;;;;8.73;5.40;;;;;;;1.74;86.39;102325.88;1822802;78;21665;-74
2020/12/21 07:37:52;;;;;;;9.40;5.75;;;;;;;1.72;86.33;102322.59;1815689;77;21127;-73
2020/12/21 07:40:20;;;;;;;9.35;5.72;;;;;;;1.72;86.34;102323.91;1768086;78;21291;-75
2020/12/21 07:42:50;;;;;;;8.05;5.33;;;;;;;1.73;86.31;102320.29;1824106;78;21169;-74
2020/12/21 07:45:18;;;;;;;8.58;5.20;;;;;;;1.74;86.33;102326.70;1812914;77;21642;-74
2020/12/21 07:47:45;;;;;;;9.23;5.97;;;;;;;1.75;86.33;102319.16;1807588;78;21163;-75
2020/12/21 07:50:13;;;;;;;9.40;6.12;;;;;;;1.77;86.32;102321.63;1823893;78;21163;-74
2020/12/21 07:52:42;;;;;;;7.50;4.80;;;;;;;1.78;86.33;102320.66;1789370;78;22391;-75
2020/12/21 07:55:11;;;;;;;8.33;5.25;;;;;;;1.82;86.33;102321.50;1756822;80;21120;-74
2020/12/21 07:57:39;;;;;;;8.50;5.95;;;;;;;1.87;86.34;102323.16;1785649;78;21160;-74
2020/12/21 08:00:07;;;;;;;8.28;5.15;;;;;;;1.94;86.36;102325.17;1768497;80;21033;-73
2020/12/21 08:02:35;;;;;;;9.73;5.67;;;;;;;1.96;86.32;102319.27;1791043;80;21033;-74
2020/12/21 08:05:03;;;;;;;7.90;4.97;;;;;;;1.97;86.30;102320.42;1733087;80;21556;-74
2020/12/21 08:07:33;;;;;;;8.95;5.53;;;;;;;2.00;86.27;102316.16;1757931;80;21132;-73
2020/12/21 08:10:00;;;;;;;8.53;5.30;;;;;;;2.04;86.24;102316.20;1790984;80;21591;-74
2020/12/21 08:12:30;;;;;;;7.37;4.78;;;;;;;2.09;86.25;102313.90;1790035;80;21136;-73
2020/12/21 08:15:00;;;;;;;7.92;5.22;;;;;;;2.14;86.22;102311.27;1778170;79;21193;-74
2020/12/21 08:17:31;;;;;;;9.13;5.85;;;;;;;2.11;86.10;102312.44;1766864;80;21363;-74
2020/12/21 08:20:05;;;;;;;9.25;5.67;;;;;;;2.11;86.09;102319.03;1791043;79;21119;-74
2020/12/21 08:22:32;;;;;;;8.23;5.15;;;;;;;2.15;86.05;102323.49;1759859;80;21100;-75
2020/12/21 08:25:11;;;;;;;10.15;6.08;;;;;;;2.13;85.91;102325.45;1789461;80;21184;-74
2020/12/21 08:27:50;;;;;;;9.05;5.45;;;;;;;2.10;85.84;102324.77;1782853;79;21108;-74
2020/12/21 08:30:21;;;;;;;9.05;6.12;;;;;;;2.07;85.72;102327.74;1784685;78;21826;-73
2020/12/21 08:32:52;;;;;;;10.35;6.58;;;;;;;2.06;85.67;102328.70;1778709;80;24988;-74
2020/12/21 08:35:25;;;;;;;9.60;6.37;;;;;;;2.02;85.59;102328.70;1773807;78;21740;-74
2020/12/21 08:37:53;;;;;;;10.15;6.12;;;;;;;2.04;85.58;102331.16;1763287;79;21171;-74
2020/12/21 08:40:20;;;;;;;11.43;6.65;;;;;;;2.02;85.51;102329.19;1791117;80;21624;-74
2020/12/21 08:42:48;;;;;;;10.72;6.92;;;;;;;1.98;85.48;102331.31;1788406;78;21493;-74
2020/12/21 08:45:20;;;;;;;11.33;7.17;;;;;;;1.99;85.48;102330.82;1790426;80;21068;-74
2020/12/21 08:47:50;;;;;;;10.18;6.55;;;;;;;2.02;85.47;102327.38;1787364;80;21064;-74
2020/12/21 08:50:19;;;;;;;9.88;6.60;;;;;;;2.06;85.43;102329.20;1791254;80;21089;-74
2020/12/21 08:52:50;;;;;;;9.35;6.25;;;;;;;2.06;85.38;102331.34;1782064;79;21108;-73
2020/12/21 08:55:18;;;;;;;12.73;7.50;;;;;;;2.06;85.34;102333.98;1760206;81;21196;-75
2020/12/21 08:57:46;;;;;;;12.63;7.65;;;;;;;2.05;85.34;102327.56;1784917;78;21073;-75
2020/12/21 09:00:15;;;;;;;10.30;6.55;;;;;;;2.04;85.29;102328.06;1790669;80;21124;-75
2020/12/21 09:02:43;;;;;;;13.60;8.48;;;;;;;2.05;85.29;102327.56;1788431;80;21175;-74
2020/12/21 09:05:11;;;;;;;12.90;8.45;;;;;;;2.01;85.26;102324.41;1791215;80;21219;-73
2020/12/21 09:07:39;;;;;;;12.80;8.30;;;;;;;2.01;85.29;102319.14;1789292;78;21642;-74
2020/12/21 09:10:07;;;;;;;11.28;7.15;;;;;;;2.04;85.29;102321.47;1782993;78;21120;-74
2020/12/21 09:12:35;;;;;;;12.90;8.20;;;;;;;2.06;85.26;102320.80;1764555;80;21077;-73
2020/12/21 09:15:03;;;;;;;12.73;7.12;;;;;;;2.06;85.22;102316.84;1787082;80;21188;-74
2020/12/21 09:17:31;;;;;;;12.25;7.72;;;;;;;2.06;85.19;102319.48;1813375;78;21170;-75
2020/12/21 09:19:58;;;;;;;11.33;7.05;;;;;;;2.01;85.15;102315.19;1817947;78;21794;-74
2020/12/21 09:22:27;;;;;;;11.60;7.33;;;;;;;1.98;85.14;102316.82;1824328;78;21166;-74
2020/12/21 09:24:54;;;;;;;11.88;7.37;;;;;;;2.00;85.17;102315.33;1824922;78;21118;-73
2020/12/21 09:27:22;;;;;;;12.35;7.97;;;;;;;2.00;85.14;102310.88;1823404;77;21205;-74
2020/12/21 09:29:50;;;;;;;11.28;7.15;;;;;;;1.98;85.11;102311.55;1819045;78;21153;-75
2020/12/21 09:32:17;;;;;;;11.68;7.15;;;;;;;1.98;85.11;102310.23;1776231;78;21250;-74
2020/12/21 09:34:45;;;;;;;10.53;6.58;;;;;;;2.01;85.12;102311.23;1809982;77;22258;-75
2020/12/21 09:37:12;;;;;;;11.43;7.05;;;;;;;2.02;85.10;102308.92;1812616;77;21855;-74
2020/12/21 09:39:41;;;;;;;10.68;6.83;;;;;;;2.02;85.06;102301.02;1781875;78;21201;-74
2020/12/21 09:42:09;;;;;;;10.63;6.70;;;;;;;2.02;85.11;102298.39;1802489;77;21427;-74
2020/12/21 09:44:36;;;;;;;11.75;6.90;;;;;;;1.99;85.04;102297.38;1793080;80;21368;-74
2020/12/21 09:47:04;;;;;;;10.25;6.30;;;;;;;1.97;85.04;102298.02;1824245;78;21173;-74
2020/12/21 09:49:32;;;;;;;8.40;5.30;;;;;;;1.99;85.07;102295.24;1824463;78;21142;-74
2020/12/21 09:51:59;;;;;;;8.88;6.30;;;;;;;2.03;85.09;102293.94;1818507;77;21331;-74
2020/12/21 09:54:27;;;;;;;9.88;7.05;;;;;;;2.08;85.04;102289.03;1817584;77;21126;-75
2020/12/21 09:56:56;;;;;;;11.10;7.22;;;;;;;2.16;85.01;102284.27;1823455;78;21854;-75
2020/12/21 09:59:24;;;;;;;8.88;6.22;;;;;;;2.21;84.95;102286.78;1824593;78;21175;-74
2020/12/21 10:01:52;;;;;;;10.18;6.40;;;;;;;2.26;84.77;102288.92;1823750;78;21657;-75
2020/12/21 10:04:20;;;;;;;9.10;6.33;;;;;;;2.22;84.54;102286.28;1823834;78;21150;-74
2020/12/21 10:06:49;;;;;;;9.70;6.28;;;;;;;2.14;84.38;102284.91;1822729;78;21940;-73
2020/12/21 10:09:19;;;;;;;9.08;6.17;;;;;;;2.07;84.33;102281.63;1760662;81;21303;-74
2020/12/21 10:11:52;;;;;;;10.18;7.00;;;;;;;2.00;84.35;102285.84;1822017;78;21694;-72
2020/12/21 10:14:20;;;;;;;10.90;6.90;;;;;;;1.97;84.41;102284.84;1824187;78;21146;-74
2020/12/21 10:16:53;;;;;;;8.80;6.20;;;;;;;2.00;84.43;102283.70;1824730;78;21151;-74
2020/12/21 10:19:21;;;;;;;10.35;6.67;;;;;;;2.03;84.39;102285.53;1823395;78;21193;-74
2020/12/21 10:21:49;;;;;;;13.75;8.63;;;;;;;2.05;84.37;102284.07;1824412;78;22123;-74
2020/12/21 10:24:17;;;;;;;11.95;8.20;;;;;;;2.05;84.35;102280.94;1824528;78;21651;-74
2020/12/21 10:26:45;;;;;;;12.45;8.25;;;;;;;2.07;84.34;102283.41;1823221;77;21158;-73
2020/12/21 10:29:13;;;;;;;11.53;7.70;;;;;;;2.02;84.28;102281.25;1796031;78;21198;-74
2020/12/21 10:31:43;;;;;;;12.50;8.08;;;;;;;2.00;84.32;102283.20;1824485;78;21217;-74
2020/12/21 10:34:10;;;;;;;13.88;8.85;;;;;;;2.01;84.35;102286.70;1824493;78;21182;-74
2020/12/21 10:36:39;;;;;;;12.28;8.63;;;;;;;2.03;84.43;102280.27;1816525;78;21217;-74
2020/12/21 10:39:06;;;;;;;15.58;9.70;;;;;;;2.10;84.51;102276.00;1789668;79;21536;-75
2020/12/21 10:41:34;;;;;;;13.32;8.13;;;;;;;2.11;84.55;102273.72;1786134;78;21257;-74
2020/12/21 10:44:01;;;;;;;13.58;8.88;;;;;;;2.23;84.54;102276.05;1778382;78;21145;-74
2020/12/21 10:46:30;;;;;;;13.50;8.90;;;;;;;2.23;84.47;102271.61;1760822;81;21362;-74
2020/12/21 10:48:59;;;;;;;14.28;9.30;;;;;;;2.18;84.35;102268.64;1820175;77;21143;-74
2020/12/21 10:51:31;;;;;;;13.50;8.18;;;;;;;2.12;84.36;102270.59;1813676;77;21725;-75
2020/12/21 10:54:00;;;;;;;14.50;8.85;;;;;;;2.07;84.42;102272.86;1782148;78;21167;-73
2020/12/21 10:56:28;;;;;;;14.00;8.78;;;;;;;2.06;84.45;102268.09;1798512;78;21609;-74
2020/12/21 10:58:56;;;;;;;14.03;8.50;;;;;;;2.06;84.45;102274.67;1801185;77;21611;-75
2020/12/21 11:01:24;;;;;;;14.68;9.55;;;;;;;2.02;84.42;102273.34;1799388;78;21138;-73
2020/12/21 11:03:53;;;;;;;17.10;10.08;;;;;;;2.00;84.45;102272.67;1800126;77;21149;-73
2020/12/21 11:06:23;;;;;;;16.02;9.78;;;;;;;2.08;84.52;102270.58;1797259;77;21182;-75
2020/12/21 11:08:52;;;;;;;14.65;9.40;;;;;;;2.17;84.48;102270.09;1802499;77;21163;-73
2020/12/21 11:11:29;;;;;;;14.33;9.35;;;;;;;2.26;84.37;102269.16;1814766;78;21518;-73
2020/12/21 11:13:59;;;;;;;15.20;9.50;;;;;;;2.33;84.22;102268.34;1805878;78;21643;-72
2020/12/21 11:16:27;;;;;;;13.18;8.68;;;;;;;2.34;84.06;102267.87;1812592;79;21142;-73
2020/12/21 11:18:55;;;;;;;14.33;8.78;;;;;;;2.33;83.91;102271.47;1791065;77;21658;-73
2020/12/21 11:21:22;;;;;;;14.80;9.45;;;;;;;2.27;83.82;102272.11;1802330;79;21535;-73
2020/12/21 11:23:52;;;;;;;13.85;8.78;;;;;;;2.21;83.78;102274.09;1808826;79;21349;-72
2020/12/21 11:26:20;;;;;;;14.87;9.38;;;;;;;2.16;83.68;102278.50;1800210;77;21171;-74
2020/12/21 11:28:47;;;;;;;15.38;9.58;;;;;;;2.07;83.58;102275.03;1809032;77;21131;-73
2020/12/21 11:31:16;;;;;;;17.92;10.80;;;;;;;2.01;83.61;102273.02;1770240;80;21588;-72